Time;durP1;ratioP1;P1;durP2;ratioP2;P2;SDS_P1;SDS_P2;PMS_P1;PMS_P2;Temp;Humidity;BMP_temperature;BMP_pressure;BME280_temperature;BME280_humidity;BME280_pressure;Samples;Min_cycle;Max_cycle;Signal;HPM_P1;HPM_P2
2022/03/25 00:01:42;;;;;;;64.27;29.80;;;12.60;59.20;;;;;;5061310;28;20318;-90
2022/03/25 00:04:08;;;;;;;59.20;28.60;;;12.50;59.50;;;;;;5058792;28;20176;-89
2022/03/25 00:06:35;;;;;;;77.07;31.35;;;12.40;59.50;;;;;;5062383;28;20181;-90
2022/03/25 00:40:49;;;;;;;67.35;29.15;;;12.10;60.20;;;;;;4942308;28;20189;-89
2022/03/25 01:14:20;;;;;;;60.63;28.27;;;11.70;60.90;;;;;;5740881;22;20241;-89
2022/03/25 01:16:46;;;;;;;77.20;29.55;;;11.90;60.60;;;;;;5018991;28;20182;-89
2022/03/25 01:22:58;;;;;;;58.95;28.80;;;11.90;60.20;;;;;;5040839;28;20649;-87
2022/03/25 01:26:06;;;;;;;63.22;27.10;;;11.90;60.00;;;;;;5040202;28;20189;-89
2022/03/25 01:28:34;;;;;;;59.95;26.38;;;11.80;60.10;;;;;;5036745;28;20202;-89
2022/03/25 01:31:01;;;;;;;65.75;29.67;;;11.70;60.40;;;;;;5018901;28;20198;-89
2022/03/25 01:33:28;;;;;;;54.15;27.40;;;11.80;60.20;;;;;;5018610;28;20650;-89
2022/03/25 01:35:55;;;;;;;62.08;29.08;;;11.80;60.00;;;;;;5018038;28;20181;-89
2022/03/25 01:38:21;;;;;;;58.05;28.50;;;11.90;60.00;;;;;;5018376;28;20232;-89
2022/03/25 01:40:47;;;;;;;69.90;30.17;;;11.70;60.20;;;;;;5018649;28;20185;-89
2022/03/25 01:43:13;;;;;;;63.00;30.90;;;11.60;60.50;;;;;;5036788;28;20427;-89
2022/03/25 01:45:39;;;;;;;68.77;30.03;;;11.60;60.80;;;;;;5018337;28;20182;-89
2022/03/25 01:48:11;;;;;;;61.78;29.90;;;11.70;60.90;;;;;;5018682;28;20181;-89
2022/03/25 01:50:38;;;;;;;68.68;31.95;;;11.70;60.70;;;;;;5019020;28;20210;-89
2022/03/25 01:53:13;;;;;;;85.30;31.52;;;11.70;60.80;;;;;;5019236;28;20174;-89
2022/03/25 01:55:56;;;;;;;64.53;31.35;;;11.70;60.70;;;;;;5045332;28;20176;-90
2022/03/25 01:58:23;;;;;;;76.57;33.40;;;11.70;60.60;;;;;;5036742;28;20222;-90
2022/03/25 02:00:50;;;;;;;59.53;31.05;;;11.70;60.60;;;;;;5035942;28;20182;-90
2022/03/25 02:03:16;;;;;;;63.47;31.48;;;11.50;60.80;;;;;;5043076;28;20177;-89
2022/03/25 02:05:43;;;;;;;71.93;31.38;;;11.70;60.70;;;;;;5020841;28;20189;-88
2022/03/25 02:08:10;;;;;;;62.83;29.38;;;11.60;60.60;;;;;;5041868;28;20188;-89
2022/03/25 02:10:37;;;;;;;65.63;29.15;;;11.60;60.50;;;;;;5026003;28;20262;-89
2022/03/25 02:13:03;;;;;;;62.95;29.80;;;11.50;60.70;;;;;;5026096;28;20189;-89
2022/03/25 02:15:34;;;;;;;67.00;32.53;;;11.60;60.80;;;;;;5028960;28;20265;-90
2022/03/25 02:18:10;;;;;;;67.32;31.13;;;11.50;60.80;;;;;;5048444;28;20208;-89
2022/03/25 02:20:37;;;;;;;68.55;32.50;;;11.40;60.80;;;;;;5023118;28;20204;-89
2022/03/25 02:23:05;;;;;;;73.32;30.77;;;11.50;60.60;;;;;;5018027;28;20177;-89
2022/03/25 02:25:31;;;;;;;59.55;27.73;;;11.30;60.80;;;;;;5018579;28;20181;-89
2022/03/25 02:28:04;;;;;;;70.80;32.08;;;11.30;61.20;;;;;;5020242;28;20235;-89
2022/03/25 02:30:31;;;;;;;57.03;29.92;;;11.30;61.20;;;;;;5034501;28;20661;-88
2022/03/25 02:33:00;;;;;;;64.85;30.17;;;11.30;61.10;;;;;;5036055;28;20791;-90
2022/03/25 02:35:44;;;;;;;68.00;31.13;;;11.10;61.20;;;;;;4999314;28;20182;-90
2022/03/25 02:38:12;;;;;;;69.20;29.95;;;11.10;61.40;;;;;;5016220;28;20177;-90
2022/03/25 02:40:39;;;;;;;72.88;32.45;;;11.00;61.60;;;;;;5023476;28;20182;-91
2022/03/25 02:43:05;;;;;;;71.80;32.58;;;11.10;61.70;;;;;;5038415;28;20189;-89
2022/03/25 02:45:31;;;;;;;71.57;30.05;;;11.20;61.30;;;;;;5036110;28;20196;-90
2022/03/25 02:47:57;;;;;;;59.40;32.27;;;11.10;61.30;;;;;;5001863;28;20623;-90
2022/03/25 02:50:22;;;;;;;59.73;29.63;;;11.00;61.40;;;;;;5036024;28;20967;-90
2022/03/25 02:52:49;;;;;;;67.07;32.47;;;10.90;61.60;;;;;;5018230;28;20185;-90
2022/03/25 02:55:14;;;;;;;56.78;28.92;;;11.10;61.50;;;;;;5017659;28;20452;-90
2022/03/25 02:57:41;;;;;;;68.10;29.90;;;11.10;61.30;;;;;;5018453;28;20174;-90
2022/03/25 03:00:08;;;;;;;59.70;30.08;;;10.80;61.60;;;;;;5017575;28;20193;-90
2022/03/25 03:02:37;;;;;;;64.63;30.45;;;10.90;61.60;;;;;;5021233;28;20189;-90
2022/03/25 03:05:06;;;;;;;66.05;29.17;;;10.80;61.30;;;;;;5049020;28;20178;-89
2022/03/25 03:07:32;;;;;;;67.85;28.70;;;10.80;61.30;;;;;;5038640;28;20166;-89
2022/03/25 03:09:58;;;;;;;63.40;29.45;;;10.80;61.30;;;;;;5038550;28;20197;-89
2022/03/25 03:12:32;;;;;;;67.55;29.33;;;10.70;61.20;;;;;;5038012;28;20213;-86
2022/03/25 03:15:04;;;;;;;59.55;28.02;;;10.70;61.00;;;;;;5054909;28;20200;-89
2022/03/25 03:17:30;;;;;;;65.40;30.48;;;10.80;60.80;;;;;;5055924;28;20193;-89
2022/03/25 03:19:55;;;;;;;61.37;27.27;;;10.70;60.80;;;;;;5037238;28;20229;-88
2022/03/25 03:22:22;;;;;;;64.93;29.57;;;10.50;60.90;;;;;;5037209;28;20246;-88
2022/03/25 03:24:48;;;;;;;59.90;27.67;;;10.40;61.10;;;;;;5021412;28;20211;-88
2022/03/25 03:27:14;;;;;;;67.93;29.70;;;10.40;61.40;;;;;;5042125;28;20569;-90
2022/03/25 03:29:40;;;;;;;63.20;29.77;;;10.40;61.30;;;;;;5029128;28;20208;-90
2022/03/25 03:32:06;;;;;;;63.87;28.37;;;10.40;61.10;;;;;;5036473;28;20237;-90
2022/03/25 03:34:32;;;;;;;57.88;27.38;;;10.40;61.10;;;;;;5037019;28;20174;-90
2022/03/25 03:36:58;;;;;;;68.30;29.63;;;10.40;60.70;;;;;;5041939;28;20177;-87
2022/03/25 03:39:24;;;;;;;60.97;28.02;;;10.50;60.50;;;;;;5042799;28;20218;-88
2022/03/25 03:41:50;;;;;;;66.50;29.70;;;9.80;59.90;;;;;;5043802;28;20456;-87
2022/03/25 03:44:16;;;;;;;68.93;32.00;;;10.50;60.30;;;;;;5043100;28;20182;-88
2022/03/25 03:46:42;;;;;;;59.70;28.10;;;10.50;60.40;;;;;;5039930;28;20269;-88
2022/03/25 03:49:07;;;;;;;66.57;29.03;;;10.40;60.40;;;;;;5021073;28;20193;-88
2022/03/25 03:51:33;;;;;;;57.10;25.90;;;10.40;60.40;;;;;;5020259;28;20473;-88
2022/03/25 03:54:00;;;;;;;57.73;26.40;;;10.60;60.10;;;;;;5020118;28;20425;-88
2022/03/25 03:56:26;;;;;;;61.20;27.35;;;10.50;59.70;;;;;;5026465;28;20405;-88
2022/03/25 03:58:52;;;;;;;52.10;27.08;;;10.50;59.50;;;;;;5057074;28;20216;-88
2022/03/25 04:01:18;;;;;;;65.60;27.30;;;10.40;59.40;;;;;;5033803;28;20225;-89
2022/03/25 04:03:44;;;;;;;53.75;26.27;;;10.40;59.50;;;;;;5020987;28;20185;-88
2022/03/25 04:06:10;;;;;;;78.63;28.00;;;10.40;59.70;;;;;;5020799;28;20173;-89
2022/03/25 04:08:36;;;;;;;59.60;26.48;;;10.20;59.90;;;;;;5020201;28;20463;-89
2022/03/25 04:11:09;;;;;;;56.95;29.38;;;10.20;60.00;;;;;;5038212;28;20232;-88
2022/03/25 04:13:35;;;;;;;56.92;26.35;;;10.00;60.20;;;;;;5020785;28;20723;-88
2022/03/25 04:16:01;;;;;;;48.37;24.97;;;9.90;60.40;;;;;;5020808;28;20190;-88
2022/03/25 04:18:27;;;;;;;50.73;25.30;;;10.00;60.50;;;;;;5020830;28;20197;-88
2022/03/25 04:20:52;;;;;;;56.50;25.33;;;10.10;60.00;;;;;;5025580;28;20198;-88
2022/03/25 04:23:18;;;;;;;52.87;26.50;;;10.10;59.90;;;;;;5023535;28;20541;-89
2022/03/25 04:25:44;;;;;;;55.90;25.73;;;10.10;59.50;;;;;;5020167;28;20181;-88
2022/03/25 04:28:09;;;;;;;53.63;25.90;;;9.90;59.40;;;;;;5038422;28;20182;-88
2022/03/25 04:30:37;;;;;;;51.37;24.23;;;9.80;59.40;;;;;;5022871;28;20668;-88
2022/03/25 04:33:04;;;;;;;57.20;25.90;;;9.90;60.10;;;;;;5019925;28;20178;-88
2022/03/25 04:35:32;;;;;;;53.47;26.83;;;10.10;59.70;;;;;;5019890;28;20182;-88
2022/03/25 04:37:59;;;;;;;51.17;25.50;;;10.00;59.40;;;;;;5018973;28;20219;-88
2022/03/25 04:40:28;;;;;;;57.97;28.33;;;9.80;59.30;;;;;;5019008;28;20204;-89
2022/03/25 04:42:55;;;;;;;55.75;26.45;;;9.70;59.70;;;;;;5020195;28;20739;-88
2022/03/25 04:45:25;;;;;;;56.42;27.10;;;9.70;60.00;;;;;;5023717;28;20249;-87
2022/03/25 04:48:16;;;;;;;61.85;26.23;;;9.70;60.00;;;;;;5020547;28;20205;-87
2022/03/25 04:51:29;;;;;;;47.25;24.63;;;9.60;60.00;;;;;;5020102;28;20619;-87
2022/03/25 04:58:36;;;;;;;55.58;25.85;;;9.50;60.20;;;;;;4952033;29;20642;-87
2022/03/25 05:01:03;;;;;;;51.20;22.30;;;;;;;;;;4958102;28;20195;-89
2022/03/25 05:03:29;;;;;;;59.92;26.10;;;9.40;60.00;;;;;;4986323;28;20183;-89
2022/03/25 05:05:55;;;;;;;53.30;25.03;;;9.50;60.80;;;;;;4986950;28;20182;-90
2022/03/25 05:08:21;;;;;;;52.00;26.33;;;9.50;61.20;;;;;;5005358;28;20202;-90
2022/03/25 05:10:46;;;;;;;57.10;24.70;;;9.50;60.20;;;;;;4971779;28;20650;-90
2022/03/25 05:13:13;;;;;;;60.30;26.23;;;9.40;60.50;;;;;;4986412;28;20996;-87
2022/03/25 05:15:41;;;;;;;55.50;25.85;;;9.40;60.80;;;;;;4984259;28;20211;-87
2022/03/25 05:18:12;;;;;;;58.65;27.05;;;9.30;61.10;;;;;;5002395;28;20186;-89
2022/03/25 05:20:38;;;;;;;61.63;25.23;;;9.60;60.80;;;;;;4977118;28;20199;-87
2022/03/25 05:23:07;;;;;;;55.63;26.88;;;9.40;60.50;;;;;;4986232;28;20183;-90
2022/03/25 05:25:34;;;;;;;58.05;26.85;;;9.50;60.30;;;;;;5022302;28;20182;-90
2022/03/25 05:27:59;;;;;;;57.50;24.77;;;9.50;60.10;;;;;;5020435;28;20265;-90
2022/03/25 05:30:33;;;;;;;53.20;24.00;;;9.50;59.70;;;;;;5020652;28;20214;-89
2022/03/25 05:32:59;;;;;;;59.42;24.17;;;9.20;59.20;;;;;;5019463;28;20177;-89
2022/03/25 05:35:27;;;;;;;60.17;27.85;;;9.30;59.60;;;;;;5021034;28;20197;-88
2022/03/25 05:37:53;;;;;;;53.33;25.52;;;9.40;59.60;;;;;;5012260;28;20598;-89
2022/03/25 05:40:20;;;;;;;57.25;25.85;;;9.40;60.30;;;;;;5021518;28;20190;-89
2022/03/25 05:42:47;;;;;;;61.42;25.83;;;9.40;59.50;;;;;;5036925;28;20166;-89
2022/03/25 05:45:14;;;;;;;56.03;27.42;;;9.50;59.50;;;;;;5038772;28;20178;-89
2022/03/25 05:47:42;;;;;;;55.35;25.35;;;9.50;59.30;;;;;;5052217;28;20179;-89
2022/03/25 05:50:10;;;;;;;54.35;26.60;;;9.40;59.20;;;;;;5020475;28;20206;-88
2022/03/25 05:52:38;;;;;;;58.05;26.92;;;9.20;59.70;;;;;;5037211;28;20214;-87
2022/03/25 05:55:05;;;;;;;67.93;27.35;;;9.20;60.00;;;;;;5033538;28;20186;-87
2022/03/25 05:57:37;;;;;;;53.50;26.35;;;9.30;60.20;;;;;;5009246;28;20182;-88
2022/03/25 06:00:08;;;;;;;65.57;26.55;;;9.20;60.90;;;;;;5025651;28;20237;-87
2022/03/25 06:02:38;;;;;;;66.75;27.75;;;9.40;62.40;;;;;;5024410;28;20187;-90
2022/03/25 06:05:04;;;;;;;48.08;24.40;;;8.60;60.70;;;;;;5002294;28;20210;-86
2022/03/25 06:07:38;;;;;;;56.80;27.48;;;;;;;;;;5000783;28;20166;-86
2022/03/25 06:10:06;;;;;;;54.97;27.17;;;10.60;56.10;;;;;;5001981;28;20219;-87
2022/03/25 06:12:32;;;;;;;57.60;26.08;;;10.90;56.50;;;;;;5015797;28;20785;-86
2022/03/25 06:14:58;;;;;;;58.85;26.38;;;11.60;55.00;;;;;;5008915;28;20205;-86
2022/03/25 06:17:24;;;;;;;55.03;25.77;;;12.20;52.90;;;;;;5009312;28;20171;-87
2022/03/25 06:19:49;;;;;;;56.37;28.10;;;12.70;51.60;;;;;;5005475;28;20198;-87
2022/03/25 06:22:15;;;;;;;50.20;27.03;;;12.90;49.30;;;;;;5018720;28;20242;-91
2022/03/25 06:24:43;;;;;;;53.70;27.97;;;13.10;48.50;;;;;;5004971;28;20429;-87
2022/03/25 06:27:10;;;;;;;51.78;29.13;;;13.60;47.70;;;;;;4999537;28;20190;-88
2022/03/25 06:29:38;;;;;;;62.55;28.85;;;14.10;46.30;;;;;;4992488;28;20206;-85
2022/03/25 06:32:22;;;;;;;54.47;28.27;;;14.70;44.80;;;;;;5015459;28;20216;-86
2022/03/25 06:35:40;;;;;;;52.03;28.02;;;14.70;43.20;;;;;;5013849;28;20162;-86
2022/03/25 06:38:07;;;;;;;52.15;27.67;;;14.60;43.20;;;;;;5007631;28;20170;-87
2022/03/25 06:40:33;;;;;;;54.00;28.25;;;14.50;43.80;;;;;;5004595;28;20186;-88
2022/03/25 06:42:59;;;;;;;55.90;30.23;;;14.00;44.00;;;;;;5020489;28;20182;-90
2022/03/25 06:45:26;;;;;;;53.67;29.77;;;13.40;45.20;;;;;;5020904;28;20185;-89
2022/03/25 06:47:52;;;;;;;60.88;29.02;;;13.30;45.80;;;;;;4989923;28;20236;-89
2022/03/25 06:50:20;;;;;;;53.33;27.80;;;12.90;46.10;;;;;;4999073;28;20198;-88
2022/03/25 06:52:47;;;;;;;53.33;28.45;;;12.40;47.20;;;;;;5011869;28;20197;-89
2022/03/25 06:55:14;;;;;;;55.17;27.58;;;12.10;48.30;;;;;;5038704;28;20185;-89
2022/03/25 06:57:41;;;;;;;62.42;29.45;;;11.90;48.90;;;;;;5027411;28;20209;-88
2022/03/25 07:00:12;;;;;;;56.90;27.20;;;11.70;49.30;;;;;;5053702;28;20185;-89
2022/03/25 07:02:42;;;;;;;58.03;29.02;;;11.60;49.60;;;;;;5024167;28;20180;-88
2022/03/25 07:05:12;;;;;;;59.22;27.27;;;11.20;50.40;;;;;;5010554;28;20186;-89
2022/03/25 07:07:41;;;;;;;60.30;27.65;;;11.00;51.20;;;;;;5048628;28;20188;-89
2022/03/25 07:10:09;;;;;;;60.63;27.70;;;10.70;52.20;;;;;;5028094;28;20228;-90
2022/03/25 07:12:43;;;;;;;61.13;25.65;;;10.70;52.50;;;;;;5033688;28;20677;-90
2022/03/25 07:15:09;;;;;;;54.45;25.00;;;10.70;52.60;;;;;;5024201;28;20197;-89
2022/03/25 07:17:37;;;;;;;54.40;25.52;;;10.40;53.00;;;;;;5024200;28;20185;-90
2022/03/25 07:20:05;;;;;;;55.13;23.70;;;10.40;53.20;;;;;;5022996;28;20194;-90
2022/03/25 07:22:31;;;;;;;58.38;27.50;;;10.50;53.30;;;;;;5041432;28;20185;-91
2022/03/25 07:24:57;;;;;;;65.40;28.52;;;10.70;53.40;;;;;;5021599;28;20192;-90
2022/03/25 07:27:23;;;;;;;65.27;28.10;;;10.90;52.90;;;;;;5021187;28;20182;-91
2022/03/25 07:29:49;;;;;;;57.30;27.60;;;11.00;52.10;;;;;;5022928;28;20197;-91
2022/03/25 07:32:14;;;;;;;59.87;28.17;;;11.00;51.90;;;;;;5040460;28;20212;-91
2022/03/25 07:34:40;;;;;;;55.73;27.57;;;11.00;52.10;;;;;;5021815;28;20266;-91
2022/03/25 07:37:06;;;;;;;60.63;29.93;;;11.20;52.10;;;;;;5022982;28;20412;-90
2022/03/25 07:39:32;;;;;;;63.53;30.80;;;11.20;51.90;;;;;;5023498;28;20666;-91
2022/03/25 07:41:58;;;;;;;58.00;28.92;;;11.50;51.70;;;;;;5023315;28;20416;-91
2022/03/25 07:44:24;;;;;;;55.67;26.77;;;11.50;50.90;;;;;;5024701;28;20193;-90
2022/03/25 07:46:50;;;;;;;63.05;28.83;;;11.60;50.80;;;;;;5042511;28;20428;-90
2022/03/25 07:49:15;;;;;;;64.97;29.20;;;11.70;50.90;;;;;;5035122;28;20213;-92
2022/03/25 07:51:42;;;;;;;62.70;29.77;;;11.70;50.60;;;;;;5040994;28;20482;-92
2022/03/25 07:54:07;;;;;;;64.65;28.67;;;11.60;50.30;;;;;;5040135;28;20196;-91
2022/03/25 07:56:33;;;;;;;56.30;29.47;;;11.80;50.40;;;;;;5043482;28;20656;-91
2022/03/25 07:58:59;;;;;;;63.87;29.83;;;11.70;50.60;;;;;;5040841;28;20460;-91
2022/03/25 08:01:26;;;;;;;85.27;29.27;;;11.50;50.90;;;;;;5048873;28;20201;-91
2022/03/25 08:03:52;;;;;;;59.30;27.88;;;11.40;51.00;;;;;;5047555;28;20514;-91
2022/03/25 08:06:18;;;;;;;61.40;29.58;;;11.40;51.00;;;;;;5051645;28;20174;-91
2022/03/25 08:08:47;;;;;;;54.65;26.92;;;11.60;50.80;;;;;;5044599;28;20643;-91
2022/03/25 08:11:13;;;;;;;59.05;28.35;;;11.70;50.50;;;;;;5047752;28;20201;-91
2022/03/25 08:13:39;;;;;;;51.92;27.05;;;11.80;50.00;;;;;;5064688;28;20307;-91
2022/03/25 08:16:05;;;;;;;57.50;27.37;;;12.00;49.70;;;;;;5051796;28;20177;-91
2022/03/25 08:18:31;;;;;;;65.27;28.80;;;12.00;48.70;;;;;;5077740;28;20416;-91
2022/03/25 08:20:57;;;;;;;58.93;28.43;;;11.80;48.90;;;;;;5060302;28;20431;-92
2022/03/25 08:29:22;;;;;;;47.00;25.58;;;11.80;47.50;;;;;;5077290;28;20691;-90
2022/03/25 08:31:47;;;;;;;55.47;25.92;;;11.90;47.20;;;;;;5045879;28;20236;-90
2022/03/25 08:34:15;;;;;;;55.50;23.10;;;12.10;47.00;;;;;;5060220;28;20173;-89
2022/03/25 08:36:42;;;;;;;48.00;24.88;;;12.20;45.80;;;;;;5058623;28;20989;-89
2022/03/25 08:39:09;;;;;;;44.08;22.60;;;12.30;45.40;;;;;;5040418;28;20292;-90
2022/03/25 08:41:34;;;;;;;55.35;26.30;;;12.40;45.20;;;;;;5044634;28;20173;-89
2022/03/25 08:44:00;;;;;;;52.03;23.53;;;12.20;45.00;;;;;;5048322;28;20185;-90
2022/03/25 08:46:26;;;;;;;53.10;25.40;;;12.40;44.80;;;;;;5059978;28;20303;-90
2022/03/25 08:48:52;;;;;;;62.80;24.43;;;12.50;43.90;;;;;;5051026;28;20197;-90
2022/03/25 08:51:18;;;;;;;49.55;26.05;;;12.80;43.60;;;;;;5048619;28;20583;-90
2022/03/25 08:53:45;;;;;;;55.07;26.70;;;12.80;42.80;;;;;;5041854;28;20174;-90
2022/03/25 08:56:12;;;;;;;52.33;25.55;;;12.90;41.40;;;;;;5040672;28;20434;-90
2022/03/25 08:58:39;;;;;;;60.20;28.92;;;13.00;41.30;;;;;;5040872;28;20201;-91
2022/03/25 09:01:04;;;;;;;64.07;26.58;;;13.00;42.20;;;;;;5045367;28;20260;-91
2022/03/25 09:03:30;;;;;;;67.23;28.23;;;13.00;42.30;;;;;;5053053;28;20197;-91
2022/03/25 09:05:56;;;;;;;54.10;28.20;;;13.20;42.00;;;;;;5073822;28;20211;-91
2022/03/25 09:08:21;;;;;;;44.90;26.10;;;13.30;40.60;;;;;;5057927;28;20177;-91
2022/03/25 09:10:48;;;;;;;54.50;25.03;;;13.30;39.80;;;;;;5066357;28;20185;-91
2022/03/25 09:13:13;;;;;;;47.67;26.10;;;13.20;39.60;;;;;;5041840;28;20181;-91
2022/03/25 09:15:39;;;;;;;51.53;25.87;;;13.20;40.30;;;;;;5040459;28;20189;-90
2022/03/25 09:18:05;;;;;;;57.60;27.63;;;13.40;40.20;;;;;;5042342;28;20177;-90
2022/03/25 09:20:31;;;;;;;52.45;27.90;;;13.50;40.00;;;;;;5041867;28;20477;-90
2022/03/25 09:22:57;;;;;;;49.00;26.48;;;13.40;40.20;;;;;;5039537;28;20219;-91
2022/03/25 09:25:23;;;;;;;64.33;29.90;;;13.40;40.10;;;;;;5039012;28;20173;-90
2022/03/25 09:27:50;;;;;;;51.00;27.23;;;13.40;40.50;;;;;;5041214;28;20173;-91
2022/03/25 09:30:15;;;;;;;52.28;27.70;;;13.50;40.40;;;;;;5059286;28;20224;-91
2022/03/25 09:32:41;;;;;;;57.73;27.20;;;13.60;40.20;;;;;;5039233;28;20251;-91
2022/03/25 09:35:10;;;;;;;54.50;28.80;;;13.80;40.40;;;;;;5057180;28;20178;-91
2022/03/25 09:37:38;;;;;;;56.20;26.95;;;13.80;40.30;;;;;;5040442;28;20411;-91
2022/03/25 09:40:07;;;;;;;65.15;28.40;;;13.90;39.90;;;;;;5061679;28;20201;-91
2022/03/25 09:42:37;;;;;;;56.95;29.25;;;13.90;40.40;;;;;;5041220;28;20177;-91
2022/03/25 09:45:04;;;;;;;54.05;28.58;;;14.00;40.00;;;;;;5057500;28;20166;-90
2022/03/25 09:47:31;;;;;;;44.03;26.33;;;14.10;39.80;;;;;;5022669;28;20192;-91
2022/03/25 09:49:59;;;;;;;55.55;28.30;;;14.10;39.40;;;;;;5038934;28;20205;-91
2022/03/25 09:52:31;;;;;;;56.70;28.42;;;14.10;39.90;;;;;;5029943;28;20197;-91
2022/03/25 09:54:58;;;;;;;54.38;29.80;;;14.00;40.00;;;;;;5019497;28;20174;-90
2022/03/25 09:57:26;;;;;;;53.90;28.75;;;14.20;40.00;;;;;;5002009;28;20178;-90
2022/03/25 09:59:53;;;;;;;54.47;28.35;;;14.20;39.70;;;;;;5017848;28;20198;-90
2022/03/25 10:02:19;;;;;;;51.38;27.98;;;14.30;39.80;;;;;;5018937;28;20189;-91
2022/03/25 10:04:46;;;;;;;54.50;28.60;;;14.50;39.50;;;;;;5036675;28;20535;-90
2022/03/25 10:07:20;;;;;;;45.15;26.63;;;14.50;39.70;;;;;;5019340;28;20193;-90
2022/03/25 10:09:48;;;;;;;59.65;27.42;;;14.60;39.40;;;;;;5019091;28;20205;-90
2022/03/25 10:12:23;;;;;;;49.28;27.58;;;14.80;39.80;;;;;;5036745;28;20202;-91
2022/03/25 10:14:51;;;;;;;49.60;27.58;;;14.60;39.50;;;;;;5037344;28;20197;-90
2022/03/25 10:17:17;;;;;;;60.25;32.38;;;14.70;39.90;;;;;;5020979;28;20177;-89
2022/03/25 10:19:52;;;;;;;47.90;25.85;;;14.80;39.90;;;;;;5020166;28;20201;-90
2022/03/25 10:22:20;;;;;;;51.25;26.77;;;14.80;39.40;;;;;;5027789;28;20247;-90
2022/03/25 10:24:53;;;;;;;54.65;24.88;;;14.70;37.60;;;;;;5029130;28;20181;-90
2022/03/25 10:27:25;;;;;;;46.75;24.83;;;15.00;37.50;;;;;;5029903;28;20162;-89
2022/03/25 10:29:54;;;;;;;47.65;24.23;;;15.00;36.40;;;;;;5021552;28;20201;-90
2022/03/25 10:32:25;;;;;;;44.28;25.73;;;15.20;36.60;;;;;;5022289;28;20201;-89
2022/03/25 10:35:11;;;;;;;42.72;24.35;;;15.20;36.20;;;;;;5020289;28;20170;-90
2022/03/25 10:37:38;;;;;;;42.22;23.00;;;15.10;36.30;;;;;;5020284;28;20555;-90
2022/03/25 10:40:07;;;;;;;43.47;22.55;;;15.10;37.10;;;;;;5019571;28;20194;-90
2022/03/25 10:42:34;;;;;;;51.97;24.10;;;15.30;36.20;;;;;;5020699;28;20178;-90
2022/03/25 10:45:00;;;;;;;45.65;25.80;;;15.40;35.70;;;;;;5007681;28;20190;-90
2022/03/25 10:47:28;;;;;;;56.63;24.40;;;15.20;36.10;;;;;;5023793;28;20680;-90
2022/03/25 10:49:57;;;;;;;48.05;24.50;;;15.30;36.40;;;;;;5040888;28;20685;-90
2022/03/25 10:52:31;;;;;;;41.95;22.92;;;15.40;35.70;;;;;;5024881;28;20209;-90
2022/03/25 10:55:20;;;;;;;49.85;22.58;;;15.60;35.40;;;;;;5028544;28;20208;-90
2022/03/25 10:58:08;;;;;;;48.10;25.55;;;15.70;33.80;;;;;;5017722;28;20186;-90
2022/03/25 11:00:34;;;;;;;37.83;18.23;;;15.70;34.10;;;;;;5032755;28;20265;-91
2022/03/25 11:03:01;;;;;;;44.25;21.58;;;15.80;32.70;;;;;;5031181;28;20677;-91
2022/03/25 11:05:27;;;;;;;43.30;24.60;;;15.80;31.90;;;;;;5029796;28;20178;-90
2022/03/25 11:07:53;;;;;;;33.10;19.95;;;15.90;32.60;;;;;;5040419;28;20181;-90
2022/03/25 11:10:19;;;;;;;38.67;19.92;;;15.70;32.30;;;;;;5020391;28;20205;-90
2022/03/25 11:12:47;;;;;;;31.43;18.70;;;15.80;31.70;;;;;;5018209;28;20205;-90
2022/03/25 11:15:15;;;;;;;37.88;20.23;;;15.80;31.20;;;;;;5019511;28;20429;-90
2022/03/25 11:17:42;;;;;;;31.52;17.25;;;15.90;30.90;;;;;;5028152;28;20204;-90
2022/03/25 11:20:11;;;;;;;29.75;16.00;;;16.00;30.00;;;;;;5027753;28;20658;-92
2022/03/25 11:22:45;;;;;;;36.15;20.52;;;16.10;30.00;;;;;;5019268;28;20216;-93
2022/03/25 11:25:13;;;;;;;40.78;20.95;;;16.20;30.00;;;;;;5037072;28;20228;-93
2022/03/25 11:27:40;;;;;;;28.45;14.20;;;16.30;30.80;;;;;;5023866;28;20176;-92
2022/03/25 11:30:13;;;;;;;32.15;15.98;;;16.30;30.00;;;;;;5019421;28;20673;-92
2022/03/25 11:33:10;;;;;;;34.92;18.58;;;16.10;30.00;;;;;;5018566;28;20261;-92
2022/03/25 11:35:42;;;;;;;29.92;17.95;;;16.10;30.00;;;;;;5037659;28;20189;-92
2022/03/25 11:38:11;;;;;;;30.90;16.27;;;16.40;30.00;;;;;;5020341;28;20182;-92
2022/03/25 11:40:43;;;;;;;28.58;16.13;;;16.10;30.00;;;;;;5022328;28;20618;-92
2022/03/25 11:43:13;;;;;;;28.10;16.75;;;16.10;30.00;;;;;;5027067;28;20184;-92
2022/03/25 11:45:39;;;;;;;35.90;17.15;;;16.10;30.00;;;;;;5038098;28;20184;-92
2022/03/25 11:48:05;;;;;;;23.50;14.25;;;16.20;30.00;;;;;;5058158;28;20193;-91
2022/03/25 11:50:38;;;;;;;32.27;16.50;;;16.30;30.00;;;;;;5034600;28;20178;-92
2022/03/25 11:53:13;;;;;;;37.00;18.73;;;16.30;30.00;;;;;;5022701;28;20717;-92
2022/03/25 11:56:01;;;;;;;34.05;18.42;;;16.20;30.00;;;;;;5022272;28;20553;-92
2022/03/25 11:59:02;;;;;;;29.30;16.00;;;16.20;30.00;;;;;;5021535;28;20225;-93
2022/03/25 12:01:30;;;;;;;36.25;15.85;;;16.30;30.00;;;;;;4989483;28;20193;-92
2022/03/25 12:03:59;;;;;;;27.90;17.48;;;16.40;30.00;;;;;;5020790;28;20192;-93
2022/03/25 12:06:28;;;;;;;30.30;15.73;;;16.50;30.00;;;;;;5022442;28;20178;-92
2022/03/25 12:09:00;;;;;;;30.33;16.23;;;16.50;30.00;;;;;;5039312;28;20300;-93
2022/03/25 12:11:55;;;;;;;23.75;13.07;;;16.60;30.00;;;;;;5025470;28;20202;-92
2022/03/25 12:14:31;;;;;;;31.00;15.55;;;16.30;30.00;;;;;;5021765;28;20201;-93
2022/03/25 12:17:07;;;;;;;31.15;14.60;;;16.40;30.00;;;;;;5024188;28;20268;-92
2022/03/25 12:19:44;;;;;;;30.55;16.83;;;16.50;30.00;;;;;;5022430;28;20217;-92
2022/03/25 12:22:23;;;;;;;29.33;16.83;;;16.20;30.00;;;;;;5022764;28;20701;-92
2022/03/25 12:24:50;;;;;;;32.75;18.00;;;16.40;30.00;;;;;;5024282;28;20186;-91
2022/03/25 12:27:16;;;;;;;27.10;16.35;;;16.40;30.00;;;;;;5024802;28;20186;-93
2022/03/25 12:29:44;;;;;;;31.42;17.40;;;16.30;30.20;;;;;;5027800;28;20295;-92
2022/03/25 12:32:15;;;;;;;38.55;18.75;;;16.20;30.80;;;;;;5027189;28;20297;-92
2022/03/25 12:34:53;;;;;;;34.40;17.80;;;16.20;31.40;;;;;;5024128;28;20562;-92
2022/03/25 12:37:46;;;;;;;36.28;18.42;;;16.20;31.50;;;;;;5026247;28;20187;-92
2022/03/25 12:40:16;;;;;;;28.58;17.52;;;16.50;31.50;;;;;;5008836;28;20221;-92
2022/03/25 12:42:43;;;;;;;36.70;18.67;;;16.60;31.30;;;;;;5022591;28;20542;-92
2022/03/25 12:45:09;;;;;;;30.83;17.05;;;16.60;31.10;;;;;;5022909;28;20181;-91
2022/03/25 12:47:38;;;;;;;32.88;19.08;;;16.60;31.30;;;;;;5027980;28;20178;-93
2022/03/25 12:50:05;;;;;;;36.42;17.88;;;16.70;31.30;;;;;;5008064;28;20263;-91
2022/03/25 12:52:31;;;;;;;27.40;15.15;;;16.70;31.20;;;;;;5026403;28;20202;-91
2022/03/25 12:55:11;;;;;;;30.40;17.33;;;16.50;31.60;;;;;;5026048;28;20182;-91
2022/03/25 12:57:39;;;;;;;35.42;19.15;;;16.60;31.90;;;;;;5020936;28;20656;-92
2022/03/25 13:00:08;;;;;;;39.58;17.35;;;16.80;32.00;;;;;;5022237;28;20202;-91
2022/03/25 13:02:39;;;;;;;37.03;18.42;;;16.70;31.90;;;;;;5026310;28;20189;-91
2022/03/25 13:05:25;;;;;;;47.00;20.27;;;16.60;31.80;;;;;;5038012;28;20174;-92
2022/03/25 13:07:58;;;;;;;35.53;18.88;;;16.30;31.80;;;;;;5041234;28;20166;-91
2022/03/25 13:10:25;;;;;;;33.55;18.05;;;16.50;32.10;;;;;;5039532;28;20266;-89
2022/03/25 13:12:52;;;;;;;33.50;17.17;;;16.80;31.80;;;;;;5038526;28;20206;-88
2022/03/25 13:15:30;;;;;;;35.00;17.55;;;16.70;31.50;;;;;;5040421;28;20200;-89
2022/03/25 13:18:01;;;;;;;33.28;17.15;;;16.70;31.40;;;;;;5039320;28;20181;-89
2022/03/25 13:20:30;;;;;;;34.35;17.45;;;16.90;31.40;;;;;;5011401;28;20202;-90
2022/03/25 13:23:08;;;;;;;29.15;16.42;;;17.10;31.40;;;;;;5021245;28;20549;-90
2022/03/25 13:25:39;;;;;;;35.28;17.67;;;17.20;31.50;;;;;;5025551;28;20193;-91
2022/03/25 13:28:11;;;;;;;29.58;15.90;;;17.30;31.50;;;;;;5023948;28;20212;-91
2022/03/25 13:30:39;;;;;;;21.58;15.48;;;17.40;31.40;;;;;;5020959;28;20224;-90
2022/03/25 13:33:07;;;;;;;32.63;17.95;;;17.50;31.50;;;;;;5022805;28;20658;-90
2022/03/25 13:35:53;;;;;;;37.55;17.80;;;17.40;31.00;;;;;;5036904;28;20169;-90
2022/03/25 13:38:25;;;;;;;29.40;18.63;;;17.50;30.90;;;;;;4998838;28;20232;-90
2022/03/25 13:40:54;;;;;;;31.00;17.73;;;17.60;30.80;;;;;;5037444;28;20189;-91
2022/03/25 13:43:23;;;;;;;33.83;17.65;;;17.70;30.60;;;;;;5021797;28;20173;-91
2022/03/25 13:46:01;;;;;;;33.15;17.58;;;17.70;30.70;;;;;;5023476;28;20178;-90
2022/03/25 13:48:44;;;;;;;29.00;15.63;;;17.70;30.60;;;;;;5028417;28;20241;-91
2022/03/25 13:51:26;;;;;;;22.70;14.57;;;17.60;31.00;;;;;;5025392;28;20201;-91
2022/03/25 13:54:06;;;;;;;27.85;14.80;;;17.60;31.30;;;;;;5002665;28;20179;-90
2022/03/25 13:56:47;;;;;;;33.63;17.40;;;17.80;31.30;;;;;;5000282;28;20170;-91